Terminal Aerodrome Forecast
Issued by NWS Sioux Falls, SD

Home | Current Version | Previous Version | Graphics & Text | Print | Product List | Glossary On
Versions: 1 2 3 4 5 6 7 8 9 10 11 12 13 14 15 16 17 18 19 20 21 22 23
244
FTUS43 KFSD 231924 AAA
TAFFSD
TAF AMD
KFSD 231924Z 2319/2418 14005KT P6SM BKN015
     FM232100 09005KT P6SM VCTS OVC025CB
     FM240100 10008KT P6SM VCSH BKN050
     FM240300 13010KT P6SM OVC040
     FM240500 14009KT P6SM BKN040 WS020/18040KT
     FM241300 17009KT P6SM SCT020 BKN050=

USA.gov is the U.S. government's official web portal to all federal, state and local government web resources and services.